Memphis International Airport
KMEM : now visible

Airfield :











YOU CAN JOIN US ON...

 
LOGIN :

Register | Disclaimer

   EN    FR    IT 

 









Legend :    VFR   Marginal VFR   IFR   Intensive IFR   Very Intensive IFR
Visi :
Ceiling :
>= 8 km
>= 3000ft
5 to 8 km
1000 to 3000 ft
1500m to 5 km
500 to 1000 ft
800 to 1500m
200 to 500 ft
< 800m
< 200 ft
Symbols :   Thunderstorms  Fog  Heavy snow  Heavy precipitations  Wind > 20 kt






- Airport Elevation : 341 ft
- IATA code : MEM


KMEM - Memphis International

CURRENT METAR :
  • 130454Z 16007KT 10SM SCT140 07/03 A3013 RMK AO2 SLP203 T00670033

EXPIRED METARs :
  • 130354Z 16009KT 10SM FEW023 06/03 A3015 RMK AO2 SLP210 T00610028
  • 130254Z 17004KT 10SM FEW250 06/02 A3016 RMK AO2 SLP213 T00610017 58008

TAF KMEM
Valid from the 13 at 03:00 until the 14 at 06:00 UTC


130302Z 1303/1406 16006KT P6SM FEW015 BKN250
FM130600 17005KT P6SM BKN020
FM130800 18003KT P6SM OVC009
TEMPO 1311/1315 3SM BR
FM131800 24004KT P6SM BKN020
FM132100 25004KT P6SM SCT020 BKN050



MET'MAP, your aeronautical weather chart ! - Copyright ORBIFLY December 2007 - Disclaimer

ORBIFLY MET'MAP TEAM :

Programming & Development : Alexandra Zaïnal
Concept & original design : Baudouin d'Aumeries
Assistance for programming : Marc-Olivier Méhu
Technical & hardware support : Manuel Goepfert

Contact : metmap@orbifly.com




SOURCES & CREDITS :

   NOAA       Earth
Advisory